Time;durP1;ratioP1;P1;durP2;ratioP2;P2;SDS_P1;SDS_P2;PMS_P1;PMS_P2;Temp;Humidity;BMP_temperature;BMP_pressure;BME280_temperature;BME280_humidity;BME280_pressure;Samples;Min_cycle;Max_cycle;Signal;HPM_P1;HPM_P2
2022/05/27 00:00:25;;;;;;;1.50;0.80;;;;;;;14.71;58.58;96874.79;107556;1267;93204;-74
2022/05/27 00:03:08;;;;;;;1.30;0.90;;;;;;;14.68;58.59;96872.30;107624;1269;35915;-74
2022/05/27 00:05:40;;;;;;;2.00;0.90;;;;;;;14.64;58.63;96874.77;107529;1268;86364;-74
2022/05/27 00:08:12;;;;;;;1.50;0.90;;;;;;;14.61;58.64;96874.57;107592;1268;34271;-74
2022/05/27 00:10:43;;;;;;;1.40;0.90;;;;;;;14.55;58.84;96866.95;107416;1270;85401;-74
2022/05/27 00:13:14;;;;;;;3.00;1.00;;;;;;;14.50;58.88;96868.06;107277;1269;121561;-74
2022/05/27 00:15:45;;;;;;;1.90;0.90;;;;;;;14.47;58.92;96868.73;107629;1267;38990;-74
2022/05/27 00:18:16;;;;;;;1.40;0.80;;;;;;;14.47;59.05;96864.59;107467;1267;73614;-75
2022/05/27 00:20:48;;;;;;;2.40;1.00;;;;;;;14.44;58.88;96856.73;107614;1267;39048;-74
2022/05/27 00:23:22;;;;;;;2.20;1.00;;;;;;;14.39;59.15;96856.04;107345;1268;161795;-74
2022/05/27 00:25:53;;;;;;;2.80;0.70;;;;;;;14.33;59.22;96856.98;107486;1267;113352;-74
2022/05/27 00:28:24;;;;;;;2.40;1.00;;;;;;;14.29;59.36;96858.70;107587;1268;45924;-74
2022/05/27 00:30:55;;;;;;;0.60;0.60;;;;;;;14.25;59.50;96854.90;107475;1267;91101;-74
2022/05/27 00:33:26;;;;;;;1.40;0.80;;;;;;;14.24;59.60;96855.18;107605;1267;34836;-74
2022/05/27 00:36:00;;;;;;;1.00;0.80;;;;;;;14.23;59.57;96854.94;107468;1270;95088;-74
2022/05/27 00:38:31;;;;;;;2.60;0.90;;;;;;;14.21;59.54;96852.45;107553;1270;37274;-74
2022/05/27 00:41:03;;;;;;;2.60;0.70;;;;;;;14.21;59.66;96849.20;107619;1267;34657;-74
2022/05/27 00:43:34;;;;;;;1.80;0.80;;;;;;;14.21;59.65;96847.92;107466;1267;91004;-74
2022/05/27 00:46:07;;;;;;;2.00;0.90;;;;;;;14.23;59.54;96843.20;107609;1267;47817;-74
2022/05/27 00:48:40;;;;;;;3.30;0.80;;;;;;;14.23;59.61;96842.08;107531;1267;115162;-74
2022/05/27 00:51:28;;;;;;;1.40;0.80;;;;;;;14.20;59.63;96841.55;107623;1267;33174;-74
2022/05/27 00:54:06;;;;;;;1.70;0.70;;;;;;;14.21;59.63;96842.54;107563;1270;52982;-73
2022/05/27 00:56:40;;;;;;;3.60;0.80;;;;;;;14.22;59.61;96840.71;107544;1267;126938;-74
2022/05/27 00:59:19;;;;;;;1.50;0.70;;;;;;;14.28;59.51;96842.09;107493;1269;94378;-74
2022/05/27 01:01:50;;;;;;;1.10;0.70;;;;;;;14.31;59.55;96838.89;107507;1270;106037;-75
2022/05/27 01:04:22;;;;;;;3.20;1.00;;;;;;;14.31;59.55;96840.65;107589;1270;46683;-74
2022/05/27 01:06:53;;;;;;;3.10;0.80;;;;;;;14.30;59.51;96837.78;107274;1270;96201;-74
2022/05/27 01:09:28;;;;;;;2.00;1.30;;;;;;;14.30;59.55;96839.17;107537;1267;90594;-74
2022/05/27 01:12:26;;;;;;;1.60;1.00;;;;;;;14.34;59.51;96839.14;107613;1267;31854;-74
2022/05/27 01:15:10;;;;;;;3.60;1.10;;;;;;;14.34;59.55;96837.39;107318;1269;146513;-74
2022/05/27 01:17:55;;;;;;;2.10;1.20;;;;;;;14.24;59.93;96837.85;107569;1267;70340;-74
2022/05/27 01:20:40;;;;;;;2.00;0.90;;;;;;;14.12;60.21;96833.28;107556;1268;90966;-74
2022/05/27 01:23:52;;;;;;;2.50;1.00;;;;;;;13.99;60.45;96838.56;107332;1267;148343;-74
2022/05/27 01:26:53;;;;;;;2.60;1.30;;;;;;;13.83;60.98;96829.36;107493;1267;104362;-74
2022/05/27 01:29:51;;;;;;;2.60;1.20;;;;;;;13.73;61.30;96832.32;107466;1268;83007;-74
2022/05/27 01:32:26;;;;;;;2.40;1.00;;;;;;;13.65;61.51;96835.10;107245;1270;160448;-74
2022/05/27 01:35:07;;;;;;;2.10;1.20;;;;;;;13.61;61.80;96830.96;107615;1270;36915;-74
2022/05/27 01:37:46;;;;;;;1.60;1.00;;;;;;;13.58;62.04;96827.29;107407;1267;153316;-74
2022/05/27 01:40:31;;;;;;;2.10;0.80;;;;;;;13.55;62.06;96821.73;107629;1267;33648;-74
2022/05/27 01:43:08;;;;;;;2.40;1.10;;;;;;;13.54;62.21;96824.38;107408;1267;119073;-74
2022/05/27 01:45:46;;;;;;;1.50;1.10;;;;;;;13.52;62.37;96818.34;106306;1267;1471937;-74
2022/05/27 01:48:26;;;;;;;3.00;0.90;;;;;;;13.51;62.41;96816.21;107635;1267;32155;-74
2022/05/27 01:51:05;;;;;;;1.10;0.90;;;;;;;13.50;62.71;96817.23;107338;1270;130003;-74
2022/05/27 01:53:42;;;;;;;3.30;1.30;;;;;;;13.51;62.59;96817.33;107689;1267;31353;-74
2022/05/27 01:56:19;;;;;;;2.10;0.90;;;;;;;13.50;62.70;96815.84;107320;1269;150431;-74
2022/05/27 01:58:55;;;;;;;1.50;0.90;;;;;;;13.49;62.84;96813.80;107434;1268;115744;-74
2022/05/27 02:01:29;;;;;;;2.10;0.80;;;;;;;13.48;63.01;96812.63;107547;1267;49882;-74
2022/05/27 02:04:06;;;;;;;1.30;0.80;;;;;;;13.49;63.01;96811.91;107525;1268;111513;-74
2022/05/27 02:06:42;;;;;;;1.40;0.80;;;;;;;13.50;63.10;96808.39;107643;1268;69023;-73
2022/05/27 02:09:19;;;;;;;2.50;0.70;;;;;;;13.50;63.03;96806.14;107593;1267;48971;-74
2022/05/27 02:11:57;;;;;;;1.90;1.00;;;;;;;13.55;63.07;96806.78;107589;1267;64501;-74
2022/05/27 02:14:35;;;;;;;0.80;0.70;;;;;;;13.59;62.90;96798.34;107520;1268;72465;-74
2022/05/27 02:17:12;;;;;;;1.50;1.00;;;;;;;13.64;62.76;96797.39;107535;1267;106123;-74
2022/05/27 02:19:49;;;;;;;1.60;0.60;;;;;;;13.76;62.55;96798.64;107637;1267;33993;-74
2022/05/27 02:22:26;;;;;;;1.60;0.90;;;;;;;13.89;62.14;96792.27;107543;1268;58216;-74
2022/05/27 02:25:02;;;;;;;2.30;0.80;;;;;;;13.96;62.00;96790.88;107549;1267;88788;-74
2022/05/27 02:27:37;;;;;;;1.20;0.60;;;;;;;13.98;61.86;96793.94;107730;1266;43483;-74
2022/05/27 02:30:13;;;;;;;2.10;0.90;;;;;;;13.95;61.83;96790.77;107359;1268;127160;-74
2022/05/27 02:35:07;;;;;;;3.60;0.80;;;;;;;13.90;61.88;96788.52;107634;1270;46861;-74
2022/05/27 02:35:44;;;;;;;1.60;0.60;;;;;;;13.84;61.92;96792.73;107585;1267;54010;-74
2022/05/27 02:38:15;;;;;;;3.30;0.70;;;;;;;13.80;61.97;96789.78;107438;1267;99218;-74
2022/05/27 02:40:54;;;;;;;1.40;0.70;;;;;;;13.76;61.99;96792.89;107571;1267;50257;-74
2022/05/27 02:43:36;;;;;;;2.20;0.80;;;;;;;13.71;62.11;96793.62;107373;1270;89587;-74
2022/05/27 02:46:22;;;;;;;1.00;0.80;;;;;;;13.67;62.24;96792.73;107639;1270;29851;-74
2022/05/27 02:49:02;;;;;;;2.60;0.80;;;;;;;13.68;62.22;96790.58;107327;1270;126283;-74
2022/05/27 02:51:43;;;;;;;1.00;0.70;;;;;;;13.70;62.22;96791.19;107466;1270;126001;-74
2022/05/27 02:54:20;;;;;;;2.50;0.80;;;;;;;13.69;62.16;96791.25;107537;1270;39282;-74
2022/05/27 02:56:59;;;;;;;2.80;1.10;;;;;;;13.67;62.24;96794.33;107401;1270;130749;-74
2022/05/27 02:59:32;;;;;;;2.60;1.20;;;;;;;13.61;62.33;96795.14;107554;1268;39823;-74
2022/05/27 03:02:12;;;;;;;1.10;0.70;;;;;;;13.54;62.48;96792.45;107553;1267;61705;-74
2022/05/27 03:04:45;;;;;;;1.00;0.50;;;;;;;13.48;62.55;96792.23;107443;1270;79653;-74
2022/05/27 03:07:33;;;;;;;0.90;0.60;;;;;;;13.42;62.82;96797.88;107438;1267;129498;-74
2022/05/27 03:10:28;;;;;;;1.70;0.70;;;;;;;13.39;62.87;96792.39;107656;1268;55652;-74
2022/05/27 03:13:27;;;;;;;1.70;0.60;;;;;;;13.37;63.01;96787.04;107543;1268;61099;-74
2022/05/27 03:16:09;;;;;;;1.60;0.80;;;;;;;13.39;63.07;96790.70;107526;1267;79557;-74
2022/05/27 03:18:54;;;;;;;3.00;0.70;;;;;;;13.41;63.18;96786.77;107438;1267;115790;-74
2022/05/27 03:21:35;;;;;;;1.70;0.80;;;;;;;13.43;63.17;96785.40;107513;1268;79574;-74
2022/05/27 03:24:16;;;;;;;1.20;0.60;;;;;;;13.46;63.22;96780.39;107620;1267;115881;-74
2022/05/27 03:27:02;;;;;;;1.50;0.60;;;;;;;13.53;63.19;96775.55;107422;1270;85335;-74
2022/05/27 03:29:40;;;;;;;1.20;0.50;;;;;;;13.62;63.11;96774.41;107654;1268;59324;-74
2022/05/27 03:32:20;;;;;;;1.20;0.70;;;;;;;13.69;62.94;96773.29;107466;1270;60879;-74
2022/05/27 03:34:56;;;;;;;2.90;0.90;;;;;;;13.75;62.95;96773.34;107621;1268;33997;-74
2022/05/27 03:37:35;;;;;;;1.60;0.80;;;;;;;13.77;62.86;96772.05;107294;1268;160050;-74
2022/05/27 03:40:11;;;;;;;1.60;0.80;;;;;;;13.77;62.92;96767.70;106712;1267;1228799;-74
2022/05/27 03:42:43;;;;;;;1.20;0.60;;;;;;;13.74;63.05;96766.43;107623;1267;33714;-74
2022/05/27 03:45:18;;;;;;;3.40;1.10;;;;;;;13.73;63.22;96767.46;107578;1267;69451;-74
2022/05/27 03:47:50;;;;;;;3.10;0.90;;;;;;;13.74;63.24;96762.96;107618;1268;32115;-74
2022/05/27 03:50:23;;;;;;;1.40;0.70;;;;;;;13.77;63.36;96760.52;107319;1267;173866;-73
2022/05/27 03:52:56;;;;;;;2.20;0.90;;;;;;;13.80;63.50;96756.67;107523;1268;83528;-74
2022/05/27 03:55:30;;;;;;;2.10;0.60;;;;;;;13.81;63.65;96757.51;107561;1268;35888;-74
2022/05/27 03:58:01;;;;;;;2.20;0.90;;;;;;;13.82;63.75;96755.14;107632;1268;44265;-73
2022/05/27 04:00:32;;;;;;;1.70;0.80;;;;;;;13.87;63.73;96756.38;107547;1268;79948;-74
2022/05/27 04:03:04;;;;;;;3.20;0.70;;;;;;;13.93;63.79;96754.89;107363;1270;109835;-74
2022/05/27 04:05:35;;;;;;;1.30;0.90;;;;;;;13.96;63.80;96753.28;107745;1268;32889;-74
2022/05/27 04:08:08;;;;;;;1.00;0.80;;;;;;;14.04;63.82;96751.02;107617;1267;108051;-73
2022/05/27 04:10:39;;;;;;;2.00;0.80;;;;;;;14.11;63.92;96749.27;107627;1267;37313;-74
2022/05/27 04:13:10;;;;;;;2.10;0.90;;;;;;;14.16;63.93;96750.41;107444;1270;97123;-74
2022/05/27 04:15:41;;;;;;;1.40;0.90;;;;;;;14.23;63.86;96747.58;107556;1267;76263;-73
2022/05/27 04:18:12;;;;;;;3.10;1.00;;;;;;;14.32;63.88;96748.83;107552;1269;54113;-74
2022/05/27 04:20:43;;;;;;;1.70;0.80;;;;;;;14.41;63.78;96749.61;107460;1269;78406;-74
2022/05/27 04:23:14;;;;;;;2.50;1.00;;;;;;;14.48;63.85;96747.30;107464;1270;63097;-74
2022/05/27 04:25:48;;;;;;;1.90;0.90;;;;;;;14.58;63.60;96739.83;107446;1270;51090;-74
2022/05/27 04:28:19;;;;;;;2.00;0.80;;;;;;;14.67;63.51;96737.55;107608;1268;35058;-74
2022/05/27 04:30:51;;;;;;;1.60;0.80;;;;;;;14.71;63.49;96738.77;107537;1270;103903;-74
2022/05/27 04:33:22;;;;;;;1.40;0.70;;;;;;;14.77;63.31;96736.16;107624;1269;37919;-74
2022/05/27 04:35:53;;;;;;;3.00;0.70;;;;;;;14.79;63.40;96736.45;107545;1271;58499;-74
2022/05/27 04:38:24;;;;;;;0.90;0.70;;;;;;;14.80;63.42;96738.39;107498;1269;136365;-74
2022/05/27 04:40:55;;;;;;;1.30;0.80;;;;;;;14.85;63.66;96740.67;107612;1267;34702;-74
2022/05/27 04:43:26;;;;;;;1.50;0.90;;;;;;;14.94;63.76;96740.57;107504;1270;68153;-73
2022/05/27 04:45:57;;;;;;;1.70;0.70;;;;;;;15.02;63.57;96740.49;107636;1268;32979;-74
2022/05/27 04:48:28;;;;;;;2.70;0.80;;;;;;;15.01;63.38;96738.64;107557;1267;80439;-74
2022/05/27 04:51:02;;;;;;;1.50;0.70;;;;;;;14.99;63.23;96735.27;107631;1269;33753;-74
2022/05/27 04:53:33;;;;;;;1.10;0.70;;;;;;;15.07;63.05;96730.08;107631;1270;31692;-73
2022/05/27 04:56:05;;;;;;;1.20;0.50;;;;;;;15.18;62.74;96732.20;107570;1270;67999;-74
2022/05/27 04:58:47;;;;;;;3.00;0.90;;;;;;;15.43;62.58;96728.39;107514;1270;61630;-74
2022/05/27 05:01:18;;;;;;;3.90;0.70;;;;;;;15.74;62.11;96726.42;107383;1270;128087;-74
2022/05/27 05:03:49;;;;;;;3.20;0.90;;;;;;;15.96;61.75;96724.59;107593;1268;43851;-74
2022/05/27 05:06:20;;;;;;;1.40;1.10;;;;;;;16.31;61.44;96723.39;107492;1270;76073;-74
2022/05/27 05:08:51;;;;;;;2.30;0.70;;;;;;;17.17;60.27;96725.29;107638;1268;31891;-74
2022/05/27 05:11:22;;;;;;;2.10;1.10;;;;;;;17.80;58.11;96721.24;107550;1268;103004;-73
2022/05/27 05:13:53;;;;;;;1.10;0.60;;;;;;;17.64;57.32;96724.38;107385;1270;121349;-74
2022/05/27 05:16:24;;;;;;;1.30;0.70;;;;;;;17.54;57.13;96724.08;107527;1270;60528;-74
2022/05/27 05:18:55;;;;;;;2.90;1.10;;;;;;;17.76;56.45;96724.42;107431;1268;122744;-75
2022/05/27 05:21:26;;;;;;;1.80;0.90;;;;;;;17.95;55.79;96724.80;107594;1268;47828;-74
2022/05/27 05:23:57;;;;;;;1.70;0.90;;;;;;;18.54;55.32;96718.90;107350;1268;160295;-74
2022/05/27 05:26:28;;;;;;;1.50;0.80;;;;;;;19.99;54.43;96717.14;107605;1270;45222;-75
2022/05/27 05:29:00;;;;;;;2.60;0.90;;;;;;;22.19;51.14;96710.06;106104;1271;1796564;-75
2022/05/27 05:31:31;;;;;;;2.70;0.70;;;;;;;23.20;47.81;96711.96;107454;1267;102905;-74
2022/05/27 05:34:03;;;;;;;1.60;0.80;;;;;;;23.66;47.14;96706.16;107581;1270;67075;-75
2022/05/27 05:36:35;;;;;;;1.60;0.60;;;;;;;24.77;45.77;96706.48;107453;1270;80167;-75
2022/05/27 05:39:07;;;;;;;2.10;0.90;;;;;;;25.02;43.29;96712.39;107703;1270;31838;-75
2022/05/27 05:41:40;;;;;;;1.10;0.70;;;;;;;25.12;42.42;96708.64;107456;1271;174816;-76
2022/05/27 05:44:12;;;;;;;2.20;0.70;;;;;;;25.08;40.78;96701.31;107488;1268;123805;-76
2022/05/27 05:46:43;;;;;;;1.20;0.80;;;;;;;25.37;41.48;96702.02;107602;1271;44502;-75
2022/05/27 05:49:14;;;;;;;3.20;1.20;;;;;;;26.11;39.91;96699.84;107365;1267;102106;-75
2022/05/27 05:51:45;;;;;;;1.40;0.70;;;;;;;26.20;39.42;96690.52;107573;1267;37872;-76
2022/05/27 05:54:16;;;;;;;2.60;0.70;;;;;;;26.28;38.84;96687.16;107558;1270;75579;-75
2022/05/27 05:56:50;;;;;;;2.00;0.70;;;;;;;26.80;38.38;96683.81;107561;1271;59576;-75
2022/05/27 05:59:22;;;;;;;1.00;0.60;;;;;;;27.51;36.51;96680.09;107400;1268;141948;-75
2022/05/27 06:01:53;;;;;;;0.80;0.50;;;;;;;27.83;36.42;96679.27;107430;1267;131644;-75
2022/05/27 06:04:25;;;;;;;1.50;0.60;;;;;;;28.56;35.88;96675.33;107508;1269;117977;-75
2022/05/27 06:06:56;;;;;;;1.20;0.50;;;;;;;29.30;36.19;96672.23;107377;1268;145972;-76
2022/05/27 06:09:28;;;;;;;1.00;0.50;;;;;;;29.79;33.63;96672.25;107572;1267;125916;-76
2022/05/27 06:12:02;;;;;;;1.30;0.70;;;;;;;29.91;32.83;96670.13;107523;1268;79401;-76
2022/05/27 06:14:33;;;;;;;1.80;0.80;;;;;;;29.96;32.57;96668.67;107734;1268;37268;-75
2022/05/27 06:17:04;;;;;;;0.90;0.50;;;;;;;30.48;31.95;96669.14;107591;1270;69001;-76
2022/05/27 06:19:35;;;;;;;1.30;0.60;;;;;;;30.77;31.44;96669.63;107590;1271;107759;-75
2022/05/27 06:22:07;;;;;;;2.40;0.60;;;;;;;30.77;29.49;96668.52;107698;1268;34673;-75
2022/05/27 06:24:38;;;;;;;2.40;0.90;;;;;;;30.44;30.33;96666.14;107378;1270;130719;-76
2022/05/27 06:27:10;;;;;;;0.80;0.50;;;;;;;30.73;30.52;96654.27;107568;1271;34958;-77
2022/05/27 06:35:19;;;;;;;0.60;0.30;;;;;;;31.97;29.27;96648.17;107637;1269;42232;-76
2022/05/27 06:37:50;;;;;;;2.00;0.60;;;;;;;32.55;28.06;96641.41;107513;1268;103025;-76
2022/05/27 06:40:23;;;;;;;1.90;0.60;;;;;;;32.37;27.19;96636.95;107578;1268;41490;-75
2022/05/27 06:42:54;;;;;;;1.00;0.50;;;;;;;31.23;27.73;96631.64;107598;1269;33964;-76
2022/05/27 06:45:25;;;;;;;1.60;0.50;;;;;;;30.74;28.29;96631.04;105701;1268;2580748;-76
2022/05/27 06:47:56;;;;;;;2.00;0.50;;;;;;;30.79;28.69;96624.08;107328;1269;173466;-76
2022/05/27 06:50:27;;;;;;;3.10;0.50;;;;;;;30.71;27.51;96618.23;107531;1271;68956;-76
2022/05/27 06:52:59;;;;;;;1.60;0.40;;;;;;;29.95;28.60;96622.30;107484;1268;113213;-77
2022/05/27 06:55:30;;;;;;;1.40;0.40;;;;;;;30.16;27.76;96625.15;107472;1269;104636;-76
2022/05/27 06:58:01;;;;;;;1.60;0.50;;;;;;;29.79;27.98;96617.83;107547;1268;126087;-76
2022/05/27 07:00:32;;;;;;;0.90;0.40;;;;;;;29.16;29.31;96612.33;107490;1271;106359;-76
2022/05/27 07:03:05;;;;;;;0.90;0.50;;;;;;;29.86;29.80;96615.73;107661;1268;31764;-76
2022/05/27 07:05:37;;;;;;;1.10;0.30;;;;;;;30.99;29.04;96606.92;107604;1268;75140;-76
2022/05/27 07:08:12;;;;;;;0.50;0.40;;;;;;;30.38;27.86;96610.45;107602;1271;80913;-76
2022/05/27 07:10:45;;;;;;;0.60;0.30;;;;;;;28.80;29.06;96609.90;107379;1268;168958;-76
2022/05/27 07:13:18;;;;;;;0.90;0.50;;;;;;;29.22;30.27;96603.75;107637;1268;84808;-76
2022/05/27 07:15:49;;;;;;;1.40;0.60;;;;;;;30.78;28.56;96596.39;107583;1268;78316;-76
2022/05/27 07:18:20;;;;;;;3.20;0.60;;;;;;;31.48;27.47;96597.09;107337;1271;135186;-76
2022/05/27 07:20:52;;;;;;;1.50;0.70;;;;;;;31.44;26.79;96595.75;107584;1270;41632;-76
2022/05/27 07:23:23;;;;;;;0.70;0.40;;;;;;;31.63;27.10;96591.45;107437;1271;73112;-76
2022/05/27 07:25:54;;;;;;;2.00;0.70;;;;;;;31.41;26.02;96582.00;106583;1268;1398243;-76
2022/05/27 07:28:25;;;;;;;0.60;0.40;;;;;;;30.31;26.84;96582.80;107370;1268;128118;-76
2022/05/27 07:31:01;;;;;;;1.90;0.60;;;;;;;30.74;26.96;96576.68;107444;1268;113025;-76
2022/05/27 07:33:32;;;;;;;1.30;0.50;;;;;;;29.27;27.27;96588.20;107589;1268;33434;-76
2022/05/27 07:36:04;;;;;;;1.00;0.60;;;;;;;28.70;28.32;96585.17;107418;1268;114442;-76
2022/05/27 07:38:35;;;;;;;1.90;0.70;;;;;;;27.28;29.80;96585.02;107588;1270;37126;-76
2022/05/27 07:41:07;;;;;;;2.00;0.60;;;;;;;26.56;31.89;96580.91;107394;1271;90871;-75
2022/05/27 07:43:38;;;;;;;0.80;0.40;;;;;;;26.01;31.74;96577.16;107640;1268;51405;-77
2022/05/27 07:46:09;;;;;;;0.90;0.40;;;;;;;24.31;33.80;96580.62;107489;1268;77765;-75
2022/05/27 07:48:40;;;;;;;3.50;0.60;;;;;;;23.13;35.74;96581.69;107247;1271;109386;-76
2022/05/27 07:51:11;;;;;;;1.10;0.50;;;;;;;22.63;36.67;96577.82;107337;1271;88465;-75
2022/05/27 07:53:42;;;;;;;1.20;0.60;;;;;;;22.28;38.03;96571.63;107418;1268;105240;-75
2022/05/27 07:56:14;;;;;;;0.80;0.50;;;;;;;22.84;38.62;96573.33;107464;1268;56657;-76
2022/05/27 07:58:45;;;;;;;2.00;0.50;;;;;;;24.95;36.68;96567.35;107337;1268;172896;-76
2022/05/27 08:01:19;;;;;;;0.70;0.50;;;;;;;26.54;34.42;96558.46;107513;1268;140061;-75
2022/05/27 08:03:50;;;;;;;1.20;0.50;;;;;;;26.57;33.71;96554.58;107182;1271;142158;-75
2022/05/27 08:06:21;;;;;;;2.60;0.60;;;;;;;26.54;33.99;96554.17;107595;1268;34693;-76
2022/05/27 08:08:53;;;;;;;2.00;0.70;;;;;;;25.69;33.42;96550.80;107442;1268;88970;-75
2022/05/27 08:11:27;;;;;;;3.60;0.90;;;;;;;24.21;35.06;96544.52;107448;1268;116001;-75
2022/05/27 08:14:01;;;;;;;1.10;0.50;;;;;;;23.30;36.65;96533.60;107570;1268;32083;-75
2022/05/27 08:16:33;;;;;;;1.40;0.60;;;;;;;22.04;38.22;96533.61;107266;1268;159723;-75
2022/05/27 08:19:04;;;;;;;1.30;0.70;;;;;;;21.59;40.04;96537.64;107712;1268;43860;-74
2022/05/27 08:21:36;;;;;;;1.30;0.70;;;;;;;23.24;37.88;96522.48;107459;1268;114142;-75
2022/05/27 08:24:10;;;;;;;3.40;0.60;;;;;;;24.57;37.28;96523.55;107692;1268;39834;-75
2022/05/27 08:26:41;;;;;;;1.60;0.50;;;;;;;26.88;35.20;96509.64;107321;1268;140148;-77
2022/05/27 08:29:14;;;;;;;1.90;0.50;;;;;;;28.63;31.94;96510.15;107238;1268;128036;-77
2022/05/27 08:31:44;;;;;;;1.50;0.50;;;;;;;29.83;30.58;96508.61;107498;1268;38116;-76
2022/05/27 08:39:53;;;;;;;1.40;0.70;;;;;;;25.09;33.78;96502.89;107526;1268;64327;-76
2022/05/27 08:42:35;;;;;;;1.80;0.70;;;;;;;25.74;33.16;96492.64;107238;1268;193764;-76
2022/05/27 08:45:17;;;;;;;2.10;0.40;;;;;;;26.67;31.84;96489.15;107685;1268;32652;-76
2022/05/27 08:47:52;;;;;;;3.30;0.60;;;;;;;27.73;30.39;96484.30;107183;1268;177504;-76
2022/05/27 08:50:29;;;;;;;2.50;0.60;;;;;;;28.17;30.47;96474.75;107336;1268;150810;-76
2022/05/27 08:53:06;;;;;;;1.40;0.50;;;;;;;28.75;29.59;96479.14;107467;1268;100582;-75
2022/05/27 09:01:26;;;;;;;1.50;0.60;;;;;;;25.24;32.87;96477.71;107474;1268;110317;-75
2022/05/27 09:04:06;;;;;;;2.10;0.50;;;;;;;23.94;34.48;96466.64;107309;1268;170348;-75
2022/05/27 09:06:42;;;;;;;3.00;0.40;;;;;;;22.83;35.68;96470.59;107690;1268;43520;-75
2022/05/27 09:09:20;;;;;;;0.90;0.50;;;;;;;22.32;37.13;96468.02;107394;1267;180249;-75
2022/05/27 09:12:11;;;;;;;0.70;0.30;;;;;;;22.10;38.64;96464.50;107604;1268;33464;-76
2022/05/27 09:14:46;;;;;;;2.90;1.10;;;;;;;21.77;38.70;96466.27;107599;1268;51604;-76
2022/05/27 09:17:26;;;;;;;1.80;0.50;;;;;;;21.41;39.29;96469.04;107279;1271;108321;-75
2022/05/27 09:20:01;;;;;;;1.50;0.80;;;;;;;21.36;39.84;96454.43;107558;1269;38487;-75
2022/05/27 09:22:45;;;;;;;3.10;0.60;;;;;;;22.02;40.51;96453.90;107395;1268;124919;-75
2022/05/27 09:25:26;;;;;;;1.20;0.40;;;;;;;22.52;39.35;96446.68;107556;1267;68365;-75
2022/05/27 09:28:12;;;;;;;1.80;0.50;;;;;;;21.97;38.88;96438.84;107571;1267;73152;-74
2022/05/27 09:30:43;;;;;;;1.30;0.40;;;;;;;21.33;40.03;96436.48;107462;1267;101372;-75
2022/05/27 09:33:17;;;;;;;1.40;0.60;;;;;;;21.12;40.77;96426.27;107526;1267;93055;-74
2022/05/27 09:35:52;;;;;;;2.00;0.50;;;;;;;21.11;40.99;96432.95;107498;1269;107068;-75
2022/05/27 09:38:26;;;;;;;1.70;0.50;;;;;;;21.15;41.33;96426.21;107591;1268;32166;-74
2022/05/27 09:41:00;;;;;;;2.80;0.70;;;;;;;21.29;41.60;96426.30;107489;1268;105601;-74
2022/05/27 09:43:37;;;;;;;1.30;0.40;;;;;;;21.40;41.29;96420.61;107542;1268;49664;-74
2022/05/27 09:46:12;;;;;;;0.60;0.40;;;;;;;21.34;40.61;96412.17;107444;1270;106313;-75
2022/05/27 09:48:44;;;;;;;0.70;0.30;;;;;;;21.26;41.71;96418.26;107242;1267;139157;-74
2022/05/27 09:51:20;;;;;;;1.20;0.70;;;;;;;21.24;42.12;96422.79;107576;1268;45471;-74
2022/05/27 09:53:54;;;;;;;1.40;0.60;;;;;;;21.49;42.00;96413.73;107311;1268;189380;-75
2022/05/27 09:56:40;;;;;;;2.10;0.50;;;;;;;21.80;41.93;96406.65;107588;1268;36271;-75
2022/05/27 09:59:25;;;;;;;1.10;0.60;;;;;;;22.05;41.95;96407.14;107425;1268;97445;-75
2022/05/27 10:02:17;;;;;;;0.90;0.40;;;;;;;22.51;42.37;96407.92;107579;1268;38198;-74
2022/05/27 10:04:54;;;;;;;2.20;0.90;;;;;;;22.34;40.72;96406.77;107456;1271;69676;-74
2022/05/27 10:07:38;;;;;;;2.40;0.60;;;;;;;22.28;41.04;96400.41;107246;1270;130756;-74
2022/05/27 10:10:28;;;;;;;3.80;0.70;;;;;;;22.18;40.46;96391.51;107508;1270;114899;-75
2022/05/27 10:13:15;;;;;;;2.60;0.60;;;;;;;21.86;40.75;96386.58;107408;1268;137007;-74
2022/05/27 10:15:46;;;;;;;1.60;0.40;;;;;;;21.87;41.74;96393.00;107308;1268;157093;-75
2022/05/27 10:18:22;;;;;;;2.10;0.70;;;;;;;22.03;41.60;96393.36;107567;1268;34028;-74
2022/05/27 10:21:00;;;;;;;1.30;0.70;;;;;;;22.07;41.72;96384.83;106011;1268;1889876;-75
2022/05/27 10:23:35;;;;;;;2.60;1.00;;;;;;;22.27;41.81;96376.94;107635;1268;32317;-74
2022/05/27 10:26:22;;;;;;;0.80;0.70;;;;;;;22.22;41.31;96373.92;107617;1270;53663;-74
2022/05/27 10:29:07;;;;;;;1.30;0.50;;;;;;;22.04;41.93;96375.67;107392;1269;138063;-74
2022/05/27 10:31:49;;;;;;;3.20;0.70;;;;;;;21.90;41.84;96378.64;107542;1270;70488;-75
2022/05/27 10:34:41;;;;;;;2.70;0.70;;;;;;;21.79;41.72;96366.62;107175;1270;195028;-74
2022/05/27 10:37:28;;;;;;;1.40;0.60;;;;;;;21.72;42.49;96366.08;107394;1268;103043;-75
2022/05/27 10:40:14;;;;;;;1.70;1.10;;;;;;;21.81;42.15;96366.95;107631;1268;32131;-74
2022/05/27 10:42:58;;;;;;;1.80;0.70;;;;;;;21.92;42.26;96354.52;107196;1268;150188;-74
2022/05/27 10:45:35;;;;;;;1.70;0.80;;;;;;;21.97;42.22;96350.67;107613;1268;35713;-74
2022/05/27 10:48:32;;;;;;;3.80;0.90;;;;;;;22.20;42.16;96343.63;107619;1268;124122;-75
2022/05/27 10:51:12;;;;;;;3.10;0.80;;;;;;;22.21;42.50;96344.73;107311;1268;139189;-75
2022/05/27 10:54:01;;;;;;;1.90;0.80;;;;;;;22.35;42.94;96333.71;107482;1270;33757;-75
2022/05/27 11:02:04;;;;;;;1.50;0.50;;;;;;;22.39;41.61;96326.90;107345;1268;156163;-74
2022/05/27 11:03:11;;;;;;;1.80;0.80;;;;;;;22.44;41.41;96313.94;107448;1270;76134;-74
2022/05/27 11:05:57;;;;;;;2.30;0.90;;;;;;;22.35;41.95;96316.72;107295;1268;209083;-75
2022/05/27 11:08:31;;;;;;;3.00;0.80;;;;;;;22.37;41.62;96313.67;107579;1268;90670;-74
2022/05/27 11:11:13;;;;;;;1.80;0.60;;;;;;;22.16;42.08;96313.18;107463;1268;165037;-74
2022/05/27 11:16:54;;;;;;;1.20;0.60;;;;;;;22.00;42.91;96309.33;107499;1268;89067;-75
2022/05/27 11:19:44;;;;;;;1.50;0.80;;;;;;;22.22;42.03;96305.02;106344;1268;1572124;-74
2022/05/27 11:22:27;;;;;;;1.70;0.50;;;;;;;22.26;42.78;96295.37;107334;1268;152247;-75
2022/05/27 11:25:13;;;;;;;1.70;0.80;;;;;;;22.50;42.92;96295.27;107597;1268;39822;-74
2022/05/27 11:27:59;;;;;;;1.10;0.60;;;;;;;22.71;42.41;96298.38;107345;1268;178032;-75
2022/05/27 11:30:41;;;;;;;2.00;0.80;;;;;;;22.71;41.55;96295.13;107261;1270;148576;-75
2022/05/27 11:33:32;;;;;;;3.00;0.80;;;;;;;23.03;42.83;96293.20;107523;1270;37316;-74
2022/05/27 11:36:21;;;;;;;2.10;0.70;;;;;;;23.41;42.09;96286.96;107308;1270;138100;-74
2022/05/27 11:39:24;;;;;;;2.30;0.90;;;;;;;23.27;42.19;96290.90;107322;1268;147817;-75
2022/05/27 11:42:07;;;;;;;2.50;0.80;;;;;;;23.19;41.44;96282.36;107518;1268;62637;-74
2022/05/27 11:44:45;;;;;;;2.10;0.80;;;;;;;22.72;41.65;96288.89;107003;1270;186566;-75
2022/05/27 11:47:49;;;;;;;2.80;1.00;;;;;;;22.62;42.37;96282.48;107313;1270;264287;-75
2022/05/27 11:50:35;;;;;;;2.30;0.90;;;;;;;22.65;42.43;96280.82;107519;1268;125438;-74
2022/05/27 11:53:26;;;;;;;3.30;0.80;;;;;;;22.56;43.13;96274.77;107515;1268;131767;-74
2022/05/27 11:56:05;;;;;;;1.60;0.70;;;;;;;22.51;42.65;96270.30;107649;1268;38993;-75
2022/05/27 11:58:51;;;;;;;1.20;0.80;;;;;;;22.15;42.84;96268.26;107651;1268;86454;-74
2022/05/27 12:01:35;;;;;;;1.90;0.80;;;;;;;21.77;42.74;96270.36;107312;1268;174807;-74
2022/05/27 12:04:14;;;;;;;2.00;0.70;;;;;;;21.56;43.76;96267.45;107674;1268;32688;-75
2022/05/27 12:06:55;;;;;;;2.60;0.80;;;;;;;21.65;44.26;96262.20;107226;1268;153254;-74
2022/05/27 12:09:31;;;;;;;1.60;0.60;;;;;;;21.71;43.44;96266.40;107334;1268;152483;-74
2022/05/27 12:12:07;;;;;;;2.10;1.00;;;;;;;21.50;43.89;96263.77;107534;1269;73914;-74
2022/05/27 12:14:43;;;;;;;0.60;0.60;;;;;;;21.35;44.58;96267.34;107311;1270;175089;-74
2022/05/27 12:17:21;;;;;;;1.50;0.70;;;;;;;21.37;45.02;96269.47;107534;1270;39231;-74
2022/05/27 12:19:59;;;;;;;1.20;0.50;;;;;;;21.35;44.63;96259.25;107356;1268;146975;-74
2022/05/27 12:22:35;;;;;;;5.90;0.70;;;;;;;21.23;44.72;96263.40;107504;1270;127924;-74
2022/05/27 12:25:11;;;;;;;0.90;0.60;;;;;;;21.11;44.64;96256.73;107589;1270;69775;-74
2022/05/27 12:27:43;;;;;;;1.00;0.80;;;;;;;21.03;45.20;96258.73;107275;1268;129474;-74